Time;durP1;ratioP1;P1;durP2;ratioP2;P2;SDS_P1;SDS_P2;PMS_P1;PMS_P2;Temp;Humidity;BMP_temperature;BMP_pressure;BME280_temperature;BME280_humidity;BME280_pressure;Samples;Min_cycle;Max_cycle;Signal;HPM_P1;HPM_P2
2021/06/15 00:01:07;;;;;;;;;8.00;8.00;;;;;22.69;54.17;100067.09;4973881;28;52536;-84
2021/06/15 00:03:33;;;;;;;;;8.25;7.50;;;;;22.63;54.05;100072.06;4970685;28;45571;-84
2021/06/15 00:05:59;;;;;;;;;11.00;9.50;;;;;22.49;54.71;100051.25;4973296;28;49229;-85
2021/06/15 00:08:24;;;;;;;;;9.50;8.25;;;;;22.55;54.01;100072.53;4970149;28;58133;-84
2021/06/15 00:10:50;;;;;;;;;7.00;7.00;;;;;22.57;54.17;100071.50;4964937;28;50894;-84
2021/06/15 00:13:16;;;;;;;;;8.00;8.00;;;;;22.52;54.49;100065.47;4968917;28;45529;-84
2021/06/15 00:15:44;;;;;;;;;11.25;9.00;;;;;22.52;54.16;100064.63;4970625;28;45702;-83
2021/06/15 00:18:10;;;;;;;;;10.00;9.00;;;;;22.51;54.30;100062.88;4970227;28;45409;-84
2021/06/15 00:20:35;;;;;;;;;9.50;9.00;;;;;22.47;54.04;100056.78;4969544;28;46202;-84
2021/06/15 00:23:00;;;;;;;;;11.25;8.00;;;;;22.40;54.57;100053.59;4964577;28;53795;-84
2021/06/15 00:25:26;;;;;;;;;10.00;8.75;;;;;22.44;54.40;100062.41;4962443;28;46617;-84
2021/06/15 00:27:51;;;;;;;;;8.00;8.00;;;;;22.43;54.72;100061.50;4964672;28;45488;-82
2021/06/15 00:30:18;;;;;;;;;10.00;8.75;;;;;22.32;54.56;100047.78;4964172;28;67793;-86
2021/06/15 00:32:46;;;;;;;;;12.00;9.00;;;;;22.30;54.71;100047.00;4952496;28;45346;-84
2021/06/15 00:35:12;;;;;;;;;7.75;7.75;;;;;22.40;54.56;100061.72;4965199;28;45635;-86
2021/06/15 00:37:37;;;;;;;;;9.50;8.00;;;;;22.37;54.37;100052.91;4962747;28;45527;-85
2021/06/15 00:40:03;;;;;;;;;7.50;7.00;;;;;22.33;54.61;100054.91;4966841;28;46067;-86
2021/06/15 00:42:29;;;;;;;;;9.00;9.00;;;;;22.35;54.42;100062.97;4967671;28;46328;-86
2021/06/15 00:45:00;;;;;;;;;8.50;7.00;;;;;22.25;54.72;100046.41;4966484;28;45572;-84
2021/06/15 00:47:25;;;;;;;;;9.25;8.50;;;;;22.31;54.83;100064.13;4988532;28;45519;-85
2021/06/15 00:49:54;;;;;;;;;10.50;8.25;;;;;22.24;55.18;100052.78;4963569;28;59396;-85
2021/06/15 00:52:19;;;;;;;;;8.00;8.00;;;;;22.25;54.99;100054.53;4966493;28;45879;-85
2021/06/15 00:54:45;;;;;;;;;10.00;9.50;;;;;22.21;55.13;100064.69;4968903;28;45501;-83
2021/06/15 00:57:18;;;;;;;;;8.75;8.75;;;;;22.10;55.18;100041.00;4968416;28;45579;-86
2021/06/15 00:59:44;;;;;;;;;11.00;9.75;;;;;22.16;55.70;100063.25;4967790;28;45645;-85
2021/06/15 01:02:09;;;;;;;;;9.00;9.00;;;;;22.09;55.81;100068.19;4969071;28;45507;-85
2021/06/15 01:04:35;;;;;;;;;9.50;8.25;;;;;22.04;56.00;100062.19;4964459;28;45470;-85
2021/06/15 01:07:04;;;;;;;;;9.00;9.00;;;;;22.02;55.88;100064.13;4971272;28;55181;-84
2021/06/15 01:09:52;;;;;;;;;10.50;10.00;;;;;21.97;55.93;100065.25;4963720;28;46530;-86
2021/06/15 01:12:26;;;;;;;;;9.50;9.00;;;;;21.93;56.02;100069.16;4969980;28;45453;-86
2021/06/15 01:14:58;;;;;;;;;10.25;9.00;;;;;21.93;56.40;100065.56;4967347;28;45667;-86
2021/06/15 01:17:38;;;;;;;;;8.25;8.25;;;;;21.85;56.78;100066.06;4985477;28;45739;-86
2021/06/15 01:20:10;;;;;;;;;9.50;9.50;;;;;21.81;56.73;100073.47;4966648;28;46034;-85
2021/06/15 01:22:38;;;;;;;;;9.50;9.00;;;;;21.79;56.78;100066.41;4964949;28;45930;-86
2021/06/15 01:25:15;;;;;;;;;11.25;10.00;;;;;21.79;56.61;100064.59;4953338;28;45483;-86
2021/06/15 01:27:57;;;;;;;;;11.00;9.25;;;;;21.62;56.55;100035.84;4984303;28;49348;-84
2021/06/15 01:30:24;;;;;;;;;11.00;10.00;;;;;21.74;57.28;100063.13;4964629;28;45546;-86
2021/06/15 01:32:56;;;;;;;;;9.00;9.00;;;;;21.62;57.14;100053.91;4962540;28;45884;-86
2021/06/15 01:35:23;;;;;;;;;8.00;8.00;;;;;21.56;56.97;100063.22;4966883;28;45666;-85
2021/06/15 01:38:02;;;;;;;;;8.50;8.50;;;;;21.54;57.08;100067.00;4962365;28;49285;-86
2021/06/15 01:40:45;;;;;;;;;11.00;9.75;;;;;21.48;57.55;100062.81;4960204;28;46278;-85
2021/06/15 01:43:35;;;;;;;;;13.00;9.25;;;;;21.40;58.00;100057.88;4972162;28;45774;-85
2021/06/15 01:46:04;;;;;;;;;10.25;9.00;;;;;21.29;57.79;100044.09;4968015;28;45441;-84
2021/06/15 01:48:42;;;;;;;;;9.00;9.00;;;;;21.33;58.02;100064.63;4963999;28;45542;-85
2021/06/15 01:51:09;;;;;;;;;11.75;9.75;;;;;21.25;58.16;100059.66;4970262;28;47208;-85
2021/06/15 01:53:38;;;;;;;;;12.25;10.25;;;;;21.08;58.45;100043.56;4986874;28;45542;-86
2021/06/15 01:56:05;;;;;;;;;9.00;8.50;;;;;20.93;58.70;100037.22;4988496;28;45554;-83
2021/06/15 01:58:35;;;;;;;;;9.50;8.25;;;;;21.04;58.83;100061.81;4963677;28;60050;-85
2021/06/15 02:01:01;;;;;;;;;8.75;7.50;;;;;20.96;58.56;100053.22;4967617;28;46213;-84
2021/06/15 02:03:28;;;;;;;;;10.00;10.00;;;;;21.00;58.83;100055.69;4967316;28;45477;-84
2021/06/15 02:05:57;;;;;;;;;9.25;9.25;;;;;20.96;58.68;100055.94;4967281;28;45553;-85
2021/06/15 02:08:27;;;;;;;;;9.50;9.50;;;;;20.98;58.41;100054.03;4965186;28;45493;-86
2021/06/15 02:10:53;;;;;;;;;11.00;11.00;;;;;20.98;58.94;100062.13;4965817;28;46298;-85
2021/06/15 02:13:20;;;;;;;;;10.75;9.50;;;;;20.89;58.73;100053.59;4972411;28;45756;-85
2021/06/15 02:15:47;;;;;;;;;12.25;9.00;;;;;20.86;58.84;100059.19;4965442;28;45813;-86
2021/06/15 02:18:12;;;;;;;;;9.25;9.25;;;;;20.80;59.11;100056.84;4965727;28;45501;-84
2021/06/15 02:20:43;;;;;;;;;9.25;9.25;;;;;20.86;59.33;100069.13;4962399;28;61056;-83
2021/06/15 02:23:11;;;;;;;;;12.50;9.25;;;;;20.85;58.58;100065.53;4966715;28;45456;-86
2021/06/15 02:25:37;;;;;;;;;8.50;8.00;;;;;20.84;58.87;100069.25;4963608;28;45480;-85
2021/06/15 02:28:03;;;;;;;;;12.00;9.50;;;;;20.81;58.72;100064.00;4963294;28;45440;-84
2021/06/15 02:30:29;;;;;;;;;10.25;9.50;;;;;20.78;58.90;100071.41;4964934;28;45689;-85
2021/06/15 02:32:58;;;;;;;;;11.00;10.25;;;;;20.77;59.13;100073.22;4965667;28;45902;-84
2021/06/15 02:35:24;;;;;;;;;12.00;9.75;;;;;20.78;59.16;100080.38;4963006;28;45548;-84
2021/06/15 02:37:53;;;;;;;;;14.75;10.75;;;;;20.72;58.87;100070.75;4965973;28;45472;-85
2021/06/15 02:40:22;;;;;;;;;11.25;10.00;;;;;20.72;59.03;100072.59;4961101;28;47476;-83
2021/06/15 02:42:52;;;;;;;;;9.50;9.50;;;;;20.63;59.50;100074.00;4945623;28;45478;-85
2021/06/15 02:45:19;;;;;;;;;12.75;10.75;;;;;20.52;59.49;100071.91;4967045;28;45507;-84
2021/06/15 02:47:45;;;;;;;;;9.25;9.00;;;;;20.46;59.44;100069.53;4961734;28;45565;-86
2021/06/15 02:50:11;;;;;;;;;12.25;10.25;;;;;20.48;59.48;100072.13;4963844;28;46444;-85
2021/06/15 02:52:56;;;;;;;;;12.25;11.50;;;;;20.45;59.76;100070.47;4969326;28;45972;-85
2021/06/15 02:55:33;;;;;;;;;12.00;9.00;;;;;20.42;59.66;100068.81;4964732;28;45541;-85
2021/06/15 02:58:00;;;;;;;;;11.25;10.00;;;;;20.40;60.03;100070.72;4969598;28;45511;-85
2021/06/15 03:00:25;;;;;;;;;11.00;9.25;;;;;20.33;59.62;100060.34;4965591;28;46412;-85
2021/06/15 03:02:51;;;;;;;;;9.25;9.25;;;;;20.32;60.02;100064.03;4961168;28;54017;-84
2021/06/15 03:05:19;;;;;;;;;10.50;9.25;;;;;20.32;59.49;100066.72;4971772;28;45689;-85
2021/06/15 03:07:45;;;;;;;;;11.25;9.25;;;;;20.23;60.11;100055.44;4969360;28;45477;-84
2021/06/15 03:10:11;;;;;;;;;12.50;10.00;;;;;20.24;59.73;100051.78;4987414;28;45362;-84
2021/06/15 03:12:43;;;;;;;;;12.00;9.00;;;;;20.25;60.12;100061.66;4967044;28;45826;-85
2021/06/15 03:15:11;;;;;;;;;9.00;9.00;;;;;20.19;59.88;100059.28;4973368;28;45504;-85
2021/06/15 03:17:40;;;;;;;;;14.75;10.75;;;;;20.08;60.28;100061.72;4968780;28;45671;-85
2021/06/15 03:20:08;;;;;;;;;11.00;10.00;;;;;20.02;60.31;100062.03;4968269;28;46277;-84
2021/06/15 03:22:58;;;;;;;;;9.25;8.50;;;;;19.97;60.65;100062.25;4969922;28;45578;-85
2021/06/15 03:25:29;;;;;;;;;10.25;10.25;;;;;19.88;60.27;100044.75;4962970;28;45531;-85
2021/06/15 03:28:02;;;;;;;;;10.75;10.50;;;;;19.87;60.46;100039.41;4962605;28;45609;-85
2021/06/15 03:30:29;;;;;;;;;8.25;8.00;;;;;19.93;60.18;100050.75;4966553;28;45530;-85
2021/06/15 03:33:05;;;;;;;;;9.00;9.00;;;;;19.98;60.09;100064.00;4964426;28;45791;-85
2021/06/15 03:35:31;;;;;;;;;13.50;10.00;;;;;19.96;60.55;100060.53;4968499;28;45664;-86
2021/06/15 03:38:03;;;;;;;;;13.50;13.50;;;;;19.94;60.65;100057.91;4967726;28;46802;-85
2021/06/15 03:40:33;;;;;;;;;9.50;9.00;;;;;19.94;60.42;100062.47;4972299;28;47661;-84
2021/06/15 03:42:59;;;;;;;;;13.50;10.75;;;;;19.82;60.01;100048.63;4971283;28;45936;-84
2021/06/15 03:45:26;;;;;;;;;12.50;11.00;;;;;19.89;60.20;100059.13;4969206;28;45563;-85
2021/06/15 03:47:54;;;;;;;;;10.00;8.50;;;;;19.86;59.82;100065.56;4969156;28;45529;-84
2021/06/15 03:50:19;;;;;;;;;13.75;10.00;;;;;19.84;59.79;100061.16;4990206;28;45613;-84
2021/06/15 03:52:46;;;;;;;;;15.00;12.00;;;;;19.82;60.20;100054.03;4968544;28;45523;-84
2021/06/15 03:55:13;;;;;;;;;11.75;10.75;;;;;19.64;59.77;100025.28;4969432;28;45529;-84
2021/06/15 03:57:41;;;;;;;;;13.00;11.00;;;;;19.83;59.95;100052.19;4985252;28;45492;-84
2021/06/15 04:00:09;;;;;;;;;13.75;11.00;;;;;19.78;59.57;100049.72;4968735;28;45847;-84
2021/06/15 04:02:38;;;;;;;;;10.75;10.00;;;;;19.81;59.81;100057.66;4970531;28;45809;-85
2021/06/15 04:05:04;;;;;;;;;14.00;11.50;;;;;19.74;59.38;100056.22;4968337;28;45617;-85
2021/06/15 04:07:31;;;;;;;;;9.25;8.75;;;;;19.72;59.18;100050.06;4963579;28;45510;-84
2021/06/15 04:09:57;;;;;;;;;9.75;8.75;;;;;19.64;59.75;100036.97;4967856;28;45788;-85
2021/06/15 04:12:25;;;;;;;;;12.75;10.50;;;;;19.65;59.83;100045.91;4967319;28;50966;-85
2021/06/15 04:14:51;;;;;;;;;13.00;10.75;;;;;19.64;60.37;100053.16;4966697;28;45600;-84
2021/06/15 04:17:21;;;;;;;;;11.25;10.50;;;;;19.60;60.24;100058.81;4966917;28;45590;-84
2021/06/15 04:19:49;;;;;;;;;10.00;10.00;;;;;19.55;59.80;100050.94;4963350;28;46276;-82
2021/06/15 04:22:15;;;;;;;;;13.25;10.75;;;;;19.52;60.39;100057.34;4968574;28;46026;-83
2021/06/15 04:24:47;;;;;;;;;17.00;11.25;;;;;19.52;59.98;100061.88;4986385;28;45562;-85
2021/06/15 04:27:13;;;;;;;;;8.75;8.75;;;;;19.51;60.14;100061.03;4962695;28;45532;-85
2021/06/15 04:29:39;;;;;;;;;9.00;8.00;;;;;19.53;60.12;100060.94;4964416;28;47201;-85
2021/06/15 04:32:10;;;;;;;;;8.25;8.00;;;;;19.59;59.51;100068.72;4967981;28;45927;-85
2021/06/15 04:34:39;;;;;;;;;11.75;8.50;;;;;19.55;59.87;100061.75;4966449;28;45547;-86
2021/06/15 04:37:06;;;;;;;;;12.75;12.75;;;;;19.62;60.35;100079.34;4969071;28;45633;-86
2021/06/15 04:39:36;;;;;;;;;10.00;9.00;;;;;19.65;59.75;100081.91;4966498;28;45700;-85
2021/06/15 04:42:06;;;;;;;;;9.50;8.25;;;;;19.60;60.25;100086.66;4967272;28;46295;-84
2021/06/15 04:44:33;;;;;;;;;9.25;9.25;;;;;19.48;60.08;100074.66;4967043;28;45421;-85
2021/06/15 04:47:25;;;;;;;;;13.00;11.25;;;;;19.51;60.30;100088.00;4969091;28;45624;-85
2021/06/15 04:49:56;;;;;;;;;13.75;11.25;;;;;19.43;60.66;100083.94;4970740;28;46576;-84
2021/06/15 04:52:25;;;;;;;;;14.00;9.75;;;;;19.51;60.13;100089.81;4963929;28;46461;-85
2021/06/15 04:54:51;;;;;;;;;13.50;8.50;;;;;19.43;59.92;100082.13;4970492;28;45572;-85
2021/06/15 04:57:29;;;;;;;;;11.75;8.50;;;;;19.53;60.43;100090.63;4965921;28;45552;-85
2021/06/15 04:59:59;;;;;;;;;9.25;9.25;;;;;19.60;60.08;100100.13;4962924;28;45429;-84
2021/06/15 05:02:26;;;;;;;;;12.25;9.25;;;;;19.54;60.23;100081.56;4962763;28;46052;-84
2021/06/15 05:04:52;;;;;;;;;14.25;10.00;;;;;19.62;59.89;100102.78;4966433;28;45867;-85
2021/06/15 05:07:22;;;;;;;;;8.75;7.75;;;;;19.64;59.86;100107.13;4962553;28;45489;-84
2021/06/15 05:09:50;;;;;;;;;11.00;9.75;;;;;19.57;59.19;100103.03;4965219;28;46235;-85
2021/06/15 05:12:18;;;;;;;;;8.00;7.75;;;;;19.53;60.28;100104.13;4964261;28;45515;-85
2021/06/15 05:14:45;;;;;;;;;11.25;9.00;;;;;19.58;60.38;100112.84;4966263;28;48887;-85
2021/06/15 05:17:11;;;;;;;;;9.00;9.00;;;;;19.59;60.61;100108.31;4964333;28;58855;-85
2021/06/15 05:19:39;;;;;;;;;8.00;8.00;;;;;19.61;60.49;100109.97;4963453;28;46546;-85
2021/06/15 05:22:08;;;;;;;;;10.00;7.75;;;;;19.66;60.43;100110.63;4964263;28;45422;-84
2021/06/15 05:24:46;;;;;;;;;9.50;9.00;;;;;19.79;59.73;100124.38;4963741;28;45547;-85
2021/06/15 05:27:12;;;;;;;;;13.00;9.50;;;;;19.84;60.02;100129.53;4963707;28;45867;-85
2021/06/15 05:29:38;;;;;;;;;9.00;9.00;;;;;19.86;59.35;100133.06;4963499;28;45475;-82
2021/06/15 05:32:06;;;;;;;;;8.25;8.25;;;;;19.93;59.19;100134.47;4963563;28;61039;-84
2021/06/15 05:34:33;;;;;;;;;12.00;9.75;;;;;19.93;59.05;100114.72;4968058;28;45617;-85
2021/06/15 05:36:58;;;;;;;;;9.50;9.50;;;;;20.04;58.91;100116.81;4967423;28;45493;-84
2021/06/15 05:39:24;;;;;;;;;9.00;9.00;;;;;20.15;58.43;100127.94;4962144;28;60928;-58
2021/06/15 05:41:49;;;;;;;;;13.25;9.00;;;;;20.26;58.08;100130.94;4970029;28;45435;-58
2021/06/15 05:44:14;;;;;;;;;9.00;9.00;;;;;20.43;57.77;100131.84;4968297;28;57362;-56
2021/06/15 05:46:40;;;;;;;;;10.00;8.00;;;;;20.58;57.72;100124.75;4965673;28;54538;-57
2021/06/15 05:49:05;;;;;;;;;12.50;10.00;;;;;20.65;57.15;100128.84;4970915;28;47183;-58
2021/06/15 05:51:32;;;;;;;;;10.00;9.25;;;;;20.64;57.32;100120.78;4972131;28;45425;-57
2021/06/15 05:54:02;;;;;;;;;10.00;9.00;;;;;20.78;57.18;100134.47;4968486;28;45438;-57
2021/06/15 05:56:30;;;;;;;;;10.00;8.25;;;;;20.83;56.71;100137.78;4974466;28;45677;-58
2021/06/15 05:58:56;;;;;;;;;10.00;10.00;;;;;21.00;56.74;100135.97;4974446;28;45442;-57
2021/06/15 06:01:21;;;;;;;;;10.50;9.00;;;;;21.09;56.53;100134.56;4968259;28;53735;-58
2021/06/15 06:03:55;;;;;;;;;9.00;9.00;;;;;21.15;56.18;100136.91;4973441;28;45703;-57
2021/06/15 06:09:04;;;;;;;;;8.50;8.50;;;;;21.25;55.92;100137.25;4971960;28;45914;-57
2021/06/15 06:11:30;;;;;;;;;9.00;9.00;;;;;21.14;56.43;100118.94;4973748;28;45316;-57
2021/06/15 06:13:55;;;;;;;;;11.75;10.00;;;;;21.26;55.55;100137.16;4971982;28;45455;-58
2021/06/15 06:16:21;;;;;;;;;9.00;7.25;;;;;21.30;55.17;100130.63;4970749;28;54183;-57
2021/06/15 06:18:46;;;;;;;;;9.75;8.25;;;;;21.36;55.37;100130.25;4974572;28;45467;-58
2021/06/15 06:21:11;;;;;;;;;9.25;8.50;;;;;21.44;54.49;100132.50;4966613;28;63275;-57
2021/06/15 06:23:37;;;;;;;;;9.00;8.50;;;;;21.54;53.76;100132.81;4962521;28;45332;-58
2021/06/15 06:26:04;;;;;;;;;11.75;7.25;;;;;21.63;54.29;100135.03;4971775;28;45666;-59
2021/06/15 06:28:29;;;;;;;;;9.75;9.25;;;;;21.70;53.88;100126.53;4969014;28;47039;-57
2021/06/15 06:30:55;;;;;;;;;8.75;8.25;;;;;21.74;53.61;100128.97;4974563;28;45314;-57
2021/06/15 06:33:20;;;;;;;;;10.00;9.75;;;;;21.82;53.39;100132.09;4972359;28;45733;-57
2021/06/15 06:35:46;;;;;;;;;11.50;8.75;;;;;21.90;53.76;100128.06;4971846;28;45432;-58
2021/06/15 06:38:11;;;;;;;;;8.00;8.00;;;;;21.98;53.25;100123.91;4968253;28;47013;-59
2021/06/15 06:40:37;;;;;;;;;7.75;7.00;;;;;22.05;52.86;100127.09;4960944;28;45442;-59
2021/06/15 06:43:03;;;;;;;;;9.00;8.00;;;;;22.06;52.78;100131.56;4959267;28;45585;-58
2021/06/15 06:45:28;;;;;;;;;7.50;7.50;;;;;22.04;52.59;100119.94;4964943;28;45572;-57
2021/06/15 06:47:54;;;;;;;;;7.00;6.50;;;;;22.10;52.48;100124.09;4971575;28;60704;-57
2021/06/15 06:50:19;;;;;;;;;11.50;9.50;;;;;22.14;53.03;100125.69;4973167;28;53696;-58
2021/06/15 06:52:44;;;;;;;;;10.25;9.25;;;;;22.21;52.45;100126.16;4973620;28;45933;-58
2021/06/15 06:55:11;;;;;;;;;9.00;8.25;;;;;22.35;52.59;100123.44;4953423;28;46790;-58
2021/06/15 06:57:36;;;;;;;;;8.50;8.00;;;;;22.49;51.85;100129.88;4967682;28;46023;-58
2021/06/15 07:00:03;;;;;;;;;11.25;10.00;;;;;22.59;51.10;100128.31;4966391;28;45433;-58
2021/06/15 07:02:29;;;;;;;;;10.00;9.25;;;;;22.70;51.45;100125.81;4973788;28;45361;-57
2021/06/15 07:04:54;;;;;;;;;8.75;8.75;;;;;22.79;50.88;100123.44;4971364;28;45927;-58
2021/06/15 07:07:20;;;;;;;;;7.50;7.25;;;;;22.87;52.11;100123.81;4973905;28;57286;-58
2021/06/15 07:09:45;;;;;;;;;8.25;8.25;;;;;22.95;52.28;100126.03;4971612;28;46646;-63
2021/06/15 07:12:11;;;;;;;;;8.25;8.25;;;;;22.98;51.79;100115.84;4968059;28;45976;-59
2021/06/15 07:14:36;;;;;;;;;10.50;9.25;;;;;23.07;52.63;100125.25;4973326;28;45329;-58
2021/06/15 07:17:02;;;;;;;;;11.25;9.50;;;;;23.19;51.56;100126.28;4968984;28;46175;-61
2021/06/15 07:19:27;;;;;;;;;9.00;9.00;;;;;23.33;50.24;100126.25;4970669;28;45604;-58
2021/06/15 07:21:52;;;;;;;;;13.75;10.50;;;;;23.49;50.46;100126.09;4970932;28;45668;-56
2021/06/15 07:24:18;;;;;;;;;11.25;9.50;;;;;23.59;50.43;100120.91;4967093;28;45570;-58
2021/06/15 07:26:43;;;;;;;;;13.00;10.00;;;;;23.77;50.40;100128.78;4968822;28;47235;-58
2021/06/15 07:29:09;;;;;;;;;9.00;9.00;;;;;23.91;49.75;100123.28;4969156;28;63798;-58
2021/06/15 07:31:34;;;;;;;;;13.25;11.00;;;;;24.03;49.70;100124.28;4969918;28;45429;-56
2021/06/15 07:34:00;;;;;;;;;10.00;8.75;;;;;24.15;49.22;100130.69;4966832;28;45468;-57
2021/06/15 07:36:26;;;;;;;;;13.75;11.00;;;;;24.26;48.29;100125.38;4966948;28;53126;-58
2021/06/15 07:38:52;;;;;;;;;8.50;8.00;;;;;24.33;48.04;100122.22;4968870;28;45520;-60
2021/06/15 07:41:17;;;;;;;;;9.75;8.50;;;;;24.49;48.44;100113.84;4958009;28;45561;-57
2021/06/15 07:43:43;;;;;;;;;15.00;10.00;;;;;24.65;47.97;100114.44;4966594;28;45588;-57
2021/06/15 07:46:08;;;;;;;;;14.25;13.00;;;;;24.80;47.28;100120.66;4970823;28;61570;-57
2021/06/15 07:48:33;;;;;;;;;30.25;25.25;;;;;24.88;47.46;100109.22;4965365;28;45298;-57
2021/06/15 07:50:59;;;;;;;;;28.00;22.25;;;;;25.05;47.11;100116.13;4969543;28;45321;-59
2021/06/15 07:53:24;;;;;;;;;10.50;10.50;;;;;25.10;47.93;100108.47;4974935;28;45459;-59
2021/06/15 07:55:50;;;;;;;;;29.00;23.25;;;;;25.20;46.92;100111.38;4971149;28;48047;-59
2021/06/15 07:58:15;;;;;;;;;17.50;15.25;;;;;25.29;47.51;100101.66;4974342;28;54884;-60
2021/06/15 08:00:41;;;;;;;;;11.75;11.50;;;;;25.38;46.59;100111.84;4971431;28;45516;-59
2021/06/15 08:03:06;;;;;;;;;11.00;10.00;;;;;25.42;46.80;100116.09;4971630;28;45453;-59
2021/06/15 08:05:31;;;;;;;;;12.25;10.75;;;;;25.41;46.97;100121.66;4969543;28;59595;-59
2021/06/15 08:07:57;;;;;;;;;13.25;12.00;;;;;25.38;46.84;100118.16;4969670;28;46088;-59
2021/06/15 08:10:22;;;;;;;;;10.50;9.75;;;;;25.42;46.95;100115.25;4965160;28;45329;-56
2021/06/15 08:12:49;;;;;;;;;12.50;9.75;;;;;25.42;46.83;100118.81;4975602;28;45661;-57
2021/06/15 08:15:14;;;;;;;;;12.00;11.25;;;;;25.41;47.33;100122.53;4971457;28;47122;-59
2021/06/15 08:17:40;;;;;;;;;11.25;10.00;;;;;25.43;46.70;100122.44;4974035;28;45407;-60
2021/06/15 08:20:06;;;;;;;;;13.50;10.75;;;;;25.43;47.17;100116.97;4971772;28;45392;-59
2021/06/15 08:22:32;;;;;;;;;11.75;11.50;;;;;25.44;47.67;100121.44;4972339;28;45737;-59
2021/06/15 08:24:57;;;;;;;;;11.25;10.00;;;;;25.38;47.31;100112.72;4970993;28;46136;-57
2021/06/15 08:27:23;;;;;;;;;13.50;10.50;;;;;25.41;47.29;100116.22;4968455;28;45350;-58
2021/06/15 08:29:48;;;;;;;;;12.00;10.50;;;;;25.42;47.39;100110.66;4965154;28;45629;-59
2021/06/15 08:32:14;;;;;;;;;13.50;11.25;;;;;25.46;47.70;100114.88;4970422;28;45823;-58
2021/06/15 08:34:39;;;;;;;;;13.25;12.00;;;;;25.47;46.97;100102.13;4973976;28;46015;-59
2021/06/15 08:37:04;;;;;;;;;16.00;11.75;;;;;25.57;46.77;100114.03;4964828;28;45407;-59
2021/06/15 08:39:30;;;;;;;;;10.00;9.00;;;;;25.62;46.58;100114.59;4957943;28;46899;-57
2021/06/15 08:41:55;;;;;;;;;12.50;10.75;;;;;25.69;46.77;100109.53;4969221;28;45503;-58
2021/06/15 08:44:21;;;;;;;;;12.25;11.00;;;;;25.73;46.62;100110.16;4972108;28;45570;-58
2021/06/15 08:46:46;;;;;;;;;10.00;10.00;;;;;25.75;45.79;100108.19;4974230;28;46443;-58
2021/06/15 08:49:12;;;;;;;;;11.00;11.00;;;;;25.79;46.08;100105.09;4973839;28;45531;-56
2021/06/15 08:51:37;;;;;;;;;12.00;12.00;;;;;25.90;46.17;100117.03;4972659;28;52023;-59
2021/06/15 08:54:07;;;;;;;;;10.00;9.75;;;;;25.98;46.12;100120.00;4970893;28;46298;-58
2021/06/15 08:56:34;;;;;;;;;12.25;11.00;;;;;25.99;45.63;100116.28;4972693;28;45342;-59
2021/06/15 08:59:17;;;;;;;;;14.25;10.75;;;;;26.02;45.76;100117.91;4969965;28;45655;-57
2021/06/15 09:01:44;;;;;;;;;17.50;10.00;;;;;26.01;46.00;100122.50;4969611;28;45624;-60
2021/06/15 09:04:09;;;;;;;;;14.00;12.75;;;;;26.03;45.65;100128.72;4972650;28;46267;-59
2021/06/15 09:06:35;;;;;;;;;10.00;10.00;;;;;26.07;45.67;100126.59;4969619;28;45484;-58
2021/06/15 09:09:01;;;;;;;;;12.50;11.50;;;;;26.07;45.35;100119.28;4967557;28;45520;-58
2021/06/15 09:11:27;;;;;;;;;15.00;14.00;;;;;26.12;45.33;100113.50;4974168;28;45529;-58
2021/06/15 09:13:54;;;;;;;;;11.50;11.00;;;;;26.23;45.33;100118.13;4970725;28;46079;-58
2021/06/15 09:16:46;;;;;;;;;8.25;7.25;;;;;26.30;45.04;100116.63;4970386;28;45453;-59
2021/06/15 09:19:18;;;;;;;;;11.75;10.00;;;;;26.34;45.04;100119.97;4967918;28;45406;-58
2021/06/15 09:21:46;;;;;;;;;11.00;10.50;;;;;26.38;45.22;100114.13;4973523;28;45613;-58
2021/06/15 09:24:13;;;;;;;;;12.50;10.75;;;;;26.50;44.87;100117.75;4973102;28;46394;-58
2021/06/15 09:27:05;;;;;;;;;8.50;8.50;;;;;26.61;44.36;100119.59;4973641;28;45416;-59
2021/06/15 09:29:37;;;;;;;;;11.25;11.25;;;;;26.68;45.56;100120.81;4964092;28;45763;-57
2021/06/15 09:32:03;;;;;;;;;11.25;11.25;;;;;26.75;44.50;100107.56;4973222;28;45426;-60
2021/06/15 09:34:28;;;;;;;;;12.50;10.50;;;;;26.76;44.16;100114.75;4969888;28;46058;-58
2021/06/15 09:36:54;;;;;;;;;13.50;9.50;;;;;26.75;43.92;100116.63;4973573;28;45446;-58
2021/06/15 09:39:19;;;;;;;;;9.25;9.25;;;;;26.75;43.44;100113.91;4967836;28;45539;-59
2021/06/15 09:41:47;;;;;;;;;12.25;9.00;;;;;26.80;43.88;100109.94;4967277;28;46485;-59
2021/06/15 09:44:31;;;;;;;;;10.50;10.00;;;;;26.84;43.38;100109.56;4972494;28;45535;-58
2021/06/15 09:47:02;;;;;;;;;13.25;12.25;;;;;26.94;43.21;100111.53;4963834;28;46029;-58
2021/06/15 09:49:27;;;;;;;;;12.00;11.00;;;;;26.99;43.11;100112.03;4971465;28;45420;-58
2021/06/15 09:52:13;;;;;;;;;11.25;9.25;;;;;27.02;43.71;100112.63;4973564;28;45595;-59
2021/06/15 09:54:44;;;;;;;;;12.00;11.00;;;;;27.04;43.08;100109.75;4972211;28;45511;-57
2021/06/15 09:57:12;;;;;;;;;12.50;12.50;;;;;27.05;43.45;100112.38;4968597;28;45310;-59
2021/06/15 09:59:57;;;;;;;;;15.75;13.25;;;;;27.06;43.22;100122.31;4967512;28;45558;-59
2021/06/15 10:02:23;;;;;;;;;16.50;13.00;;;;;27.18;42.96;100122.28;4950813;28;45504;-59
2021/06/15 10:04:50;;;;;;;;;10.00;10.00;;;;;27.24;44.40;100102.66;4970904;28;45506;-59
2021/06/15 10:07:27;;;;;;;;;15.50;12.00;;;;;27.47;44.20;100119.00;4972998;28;45873;-57
2021/06/15 10:09:53;;;;;;;;;14.25;10.75;;;;;27.71;43.33;100123.38;4968914;28;45387;-59
2021/06/15 10:12:19;;;;;;;;;14.75;13.75;;;;;27.81;42.98;100122.44;4971309;28;45508;-58
2021/06/15 10:14:45;;;;;;;;;11.25;10.00;;;;;27.81;41.28;100121.56;4971054;28;63135;-59
2021/06/15 10:17:11;;;;;;;;;10.00;9.50;;;;;27.75;41.56;100113.88;4971199;28;45731;-58
2021/06/15 10:19:38;;;;;;;;;11.25;10.00;;;;;27.79;41.20;100112.63;4952202;28;45592;-58
2021/06/15 10:22:04;;;;;;;;;8.00;8.00;;;;;27.84;41.26;100113.09;4973403;28;45499;-58
2021/06/15 10:24:29;;;;;;;;;11.00;9.50;;;;;27.87;41.10;100115.56;4972043;28;46098;-58
2021/06/15 10:26:55;;;;;;;;;11.75;10.75;;;;;27.89;40.55;100118.16;4973026;28;45473;-58
2021/06/15 10:29:21;;;;;;;;;10.00;9.50;;;;;27.92;43.14;100106.97;4965314;28;48430;-67
2021/06/15 10:31:49;;;;;;;;;11.75;11.00;;;;;28.14;40.14;100108.72;4967272;28;45429;-69
2021/06/15 10:34:15;;;;;;;;;13.25;13.25;;;;;28.26;39.50;100102.16;4969352;28;45519;-58
2021/06/15 10:36:46;;;;;;;;;9.75;9.00;;;;;28.39;39.18;100106.53;4964763;28;45599;-58
2021/06/15 10:39:37;;;;;;;;;11.25;11.00;;;;;28.54;39.58;100101.56;4971741;28;45565;-58
2021/06/15 10:42:15;;;;;;;;;12.50;10.25;;;;;28.67;38.65;100104.94;4970919;28;45275;-59
2021/06/15 10:44:41;;;;;;;;;9.25;9.25;;;;;28.81;38.94;100103.72;4971918;28;45409;-58
2021/06/15 10:47:11;;;;;;;;;10.00;9.00;;;;;28.97;38.70;100099.59;4972231;28;46324;-59
2021/06/15 10:49:56;;;;;;;;;10.50;10.50;;;;;29.14;39.21;100106.25;4971839;28;45538;-58
2021/06/15 10:52:23;;;;;;;;;8.00;7.00;;;;;29.17;38.57;100108.69;4969131;28;45523;-58
2021/06/15 10:54:49;;;;;;;;;11.00;11.00;;;;;29.13;39.10;100110.84;4972112;28;45537;-57
2021/06/15 10:57:27;;;;;;;;;13.25;11.50;;;;;29.11;37.90;100112.00;4968070;28;50051;-57
2021/06/15 11:00:09;;;;;;;;;13.00;10.75;;;;;29.07;37.90;100109.53;4967263;28;45923;-58
2021/06/15 11:02:35;;;;;;;;;11.25;11.25;;;;;29.04;41.06;100098.88;4971422;28;45507;-82
2021/06/15 11:05:36;;;;;;;;;9.00;9.00;;;;;29.56;41.33;100103.28;4949793;28;46109;-83
2021/06/15 11:08:22;;;;;;;;;7.75;7.75;;;;;30.17;40.08;100094.81;4955268;28;46051;-83
2021/06/15 11:10:56;;;;;;;;;9.75;9.25;;;;;30.52;38.61;100082.28;4965599;28;45658;-83
2021/06/15 11:13:38;;;;;;;;;9.75;9.75;;;;;30.98;38.27;100083.22;4986189;28;45307;-80
2021/06/15 11:16:04;;;;;;;;;10.25;9.00;;;;;31.33;38.14;100084.28;4966140;28;45554;-82
2021/06/15 11:18:29;;;;;;;;;10.75;10.25;;;;;31.71;37.16;100075.88;4968945;28;47417;-83
2021/06/15 11:20:55;;;;;;;;;9.50;8.50;;;;;34.02;35.61;100080.53;4968375;28;45642;-82
2021/06/15 11:23:20;;;;;;;;;10.00;8.75;;;;;38.42;31.22;100082.22;4969568;28;45579;-80
2021/06/15 11:25:59;;;;;;;;;11.33;8.33;;;;;42.58;27.10;100091.47;4974352;28;45472;-81